Time,TemperatureF,DewpointF,PressureIn,WindDirection,WindDirectionDegrees,WindSpeedMPH,WindSpeedGustMPH,Humidity,HourlyPrecipIn,Conditions,Clouds,dailyrainin,SolarRadiationWatts/m^2,SoftwareType,DateUTC
2013-06-11 00:01:00,63.9,62.8,29.93,SE,134,0.0,2.0,96,0.00,,,2.07,0.0,meteohub,2013-06-11 04:01:00,
2013-06-11 00:02:00,63.9,62.8,29.93,SE,134,0.0,2.0,96,0.00,,,2.07,0.0,meteohub,2013-06-11 04:02:00,
2013-06-11 00:08:00,63.9,62.8,29.92,SE,134,0.0,1.0,96,0.00,,,0.00,0.0,meteohub,2013-06-11 04:08:00,
2013-06-11 00:13:00,63.7,62.6,29.92,SE,134,0.0,1.0,96,0.00,,,0.00,0.0,meteohub,2013-06-11 04:13:00,
2013-06-11 00:18:00,63.7,62.6,29.92,SE,134,0.0,1.0,96,0.00,,,0.00,0.0,meteohub,2013-06-11 04:18:00,
2013-06-11 00:23:00,63.5,62.4,29.92,SE,134,0.0,1.0,96,0.00,,,0.00,0.0,meteohub,2013-06-11 04:23:00,
2013-06-11 00:28:00,63.3,62.2,29.91,SE,134,0.0,1.0,96,0.00,,,0.00,0.0,meteohub,2013-06-11 04:28:00,
2013-06-11 00:33:00,63.3,62.2,29.92,SE,134,0.0,1.0,96,0.00,,,0.00,0.0,meteohub,2013-06-11 04:33:00,
2013-06-11 00:38:00,63.3,62.2,29.92,SE,134,0.0,1.0,96,0.00,,,0.00,0.0,meteohub,2013-06-11 04:38:00,
2013-06-11 00:43:00,63.1,62.1,29.92,SSE,150,0.0,1.0,96,0.00,,,0.00,0.0,meteohub,2013-06-11 04:43:00,
2013-06-11 00:48:00,63.1,62.1,29.91,SSE,150,1.0,1.0,96,0.00,,,0.00,0.0,meteohub,2013-06-11 04:48:00,
2013-06-11 00:53:00,63.3,62.2,29.92,WSW,244,0.0,2.0,96,0.00,,,0.00,0.0,meteohub,2013-06-11 04:53:00,
2013-06-11 00:58:00,63.3,62.2,29.91,South,183,0.0,2.0,96,0.00,,,0.00,0.0,meteohub,2013-06-11 04:58:00,
2013-06-11 01:03:00,63.5,62.4,29.91,South,183,0.0,2.0,96,0.00,,,0.00,0.0,meteohub,2013-06-11 05:03:00,
2013-06-11 01:08:00,63.5,62.4,29.91,SW,228,0.0,2.0,96,0.00,,,0.00,0.0,meteohub,2013-06-11 05:08:00,
2013-06-11 01:13:00,63.7,62.6,29.91,SW,228,0.0,2.0,96,0.00,,,0.00,0.0,meteohub,2013-06-11 05:13:00,
2013-06-11 01:18:00,63.7,62.8,29.91,SW,228,0.0,2.0,97,0.00,,,0.00,0.0,meteohub,2013-06-11 05:18:00,
2013-06-11 01:23:00,63.7,62.8,29.91,SW,224,0.0,1.0,97,0.00,,,0.00,0.0,meteohub,2013-06-11 05:23:00,
2013-06-11 01:28:00,63.7,62.8,29.91,SW,232,1.0,3.0,97,0.00,,,0.00,0.0,meteohub,2013-06-11 05:28:00,
2013-06-11 01:33:00,63.7,62.8,29.91,East,88,0.0,3.0,97,0.00,,,0.00,0.0,meteohub,2013-06-11 05:33:00,
2013-06-11 01:39:00,63.9,63.0,29.90,ESE,109,1.0,2.0,97,0.00,,,0.00,0.0,meteohub,2013-06-11 05:39:00,
2013-06-11 01:44:00,63.9,63.0,29.91,SSE,150,0.0,2.0,97,0.00,,,0.00,0.0,meteohub,2013-06-11 05:44:00,
2013-06-11 01:49:00,63.9,63.0,29.91,ESE,104,1.0,2.0,97,0.00,,,0.00,0.0,meteohub,2013-06-11 05:49:00,
2013-06-11 01:54:00,63.9,63.0,29.91,NW,314,0.0,3.0,97,0.00,,,0.00,0.0,meteohub,2013-06-11 05:54:00,
2013-06-11 01:59:00,63.9,63.0,29.91,NW,315,1.0,3.0,97,0.00,,,0.00,0.0,meteohub,2013-06-11 05:59:00,
2013-06-11 02:04:00,63.9,63.0,29.91,NW,312,0.0,3.0,97,0.00,,,0.00,0.0,meteohub,2013-06-11 06:04:00,
2013-06-11 02:09:00,63.9,63.0,29.91,NW,312,0.0,2.0,97,0.00,,,0.00,0.0,meteohub,2013-06-11 06:09:00,
2013-06-11 02:14:00,63.9,63.0,29.91,West,268,0.0,1.0,97,0.00,,,0.00,0.0,meteohub,2013-06-11 06:14:00,
2013-06-11 02:19:00,63.9,63.0,29.91,West,269,0.0,2.0,97,0.00,,,0.00,0.0,meteohub,2013-06-11 06:19:00,
2013-06-11 02:24:00,63.9,63.0,29.91,West,269,0.0,2.0,97,0.00,,,0.00,0.0,meteohub,2013-06-11 06:24:00,
2013-06-11 02:29:00,63.9,63.0,29.92,West,269,0.0,2.0,97,0.00,,,0.00,0.0,meteohub,2013-06-11 06:29:00,
2013-06-11 02:34:00,63.7,62.8,29.92,SE,144,2.0,2.0,97,0.03,,,0.03,0.0,meteohub,2013-06-11 06:34:00,
2013-06-11 02:39:00,63.7,62.8,29.91,SSE,151,1.0,2.0,97,0.07,,,0.07,0.0,meteohub,2013-06-11 06:39:00,
2013-06-11 02:45:00,63.7,62.8,29.91,SE,142,0.0,3.0,97,0.12,,,0.12,0.0,meteohub,2013-06-11 06:45:00,
2013-06-11 02:50:00,63.5,62.6,29.91,SE,142,0.0,5.0,97,0.13,,,0.13,0.0,meteohub,2013-06-11 06:50:00,
2013-06-11 02:55:00,63.3,62.4,29.91,SE,131,1.0,5.0,97,0.14,,,0.14,0.0,meteohub,2013-06-11 06:55:00,
2013-06-11 03:00:00,63.1,62.2,29.90,SE,131,0.0,5.0,97,0.14,,,0.14,0.0,meteohub,2013-06-11 07:00:00,
2013-06-11 03:05:00,63.0,61.9,29.90,ESE,109,0.0,4.0,96,0.14,,,0.14,0.0,meteohub,2013-06-11 07:05:00,
2013-06-11 03:10:00,62.6,61.5,29.88,South,173,1.0,3.0,96,0.14,,,0.14,0.0,meteohub,2013-06-11 07:10:00,
2013-06-11 03:15:00,62.4,61.3,29.89,SSE,167,0.0,3.0,96,0.14,,,0.14,0.0,meteohub,2013-06-11 07:15:00,
2013-06-11 03:20:00,62.2,61.2,29.89,SSE,155,0.0,4.0,96,0.14,,,0.14,0.0,meteohub,2013-06-11 07:20:00,
2013-06-11 03:25:00,62.1,61.0,29.89,SSE,155,0.0,4.0,96,0.14,,,0.14,0.0,meteohub,2013-06-11 07:25:00,
2013-06-11 03:30:00,62.1,61.0,29.89,SSE,155,0.0,3.0,96,0.11,,,0.14,0.0,meteohub,2013-06-11 07:30:00,
2013-06-11 03:35:00,62.1,61.0,29.89,ESE,122,0.0,2.0,96,0.03,,,0.14,0.0,meteohub,2013-06-11 07:35:00,
2013-06-11 03:40:00,61.9,60.8,29.89,SE,143,1.0,2.0,96,0.02,,,0.14,0.0,meteohub,2013-06-11 07:40:00,
2013-06-11 03:45:00,61.9,60.8,29.88,South,172,0.0,3.0,96,0.01,,,0.14,0.0,meteohub,2013-06-11 07:45:00,
2013-06-11 03:50:00,61.9,60.8,29.88,SSE,152,0.0,5.0,96,0.00,,,0.14,0.0,meteohub,2013-06-11 07:50:00,
2013-06-11 03:55:00,62.1,61.0,29.88,South,181,1.0,5.0,96,0.00,,,0.14,0.0,meteohub,2013-06-11 07:55:00,
2013-06-11 04:00:00,62.1,61.0,29.88,SSW,198,0.0,5.0,96,0.00,,,0.14,0.0,meteohub,2013-06-11 08:00:00,
2013-06-11 04:05:00,62.1,61.0,29.88,East,101,1.0,5.0,96,0.00,,,0.14,0.0,meteohub,2013-06-11 08:05:00,
2013-06-11 04:10:00,62.1,61.0,29.88,South,188,0.0,3.0,96,0.00,,,0.14,0.0,meteohub,2013-06-11 08:10:00,
2013-06-11 04:16:00,62.1,61.0,29.88,SSE,161,0.0,4.0,96,0.00,,,0.14,0.0,meteohub,2013-06-11 08:16:00,
2013-06-11 04:21:00,62.1,61.0,29.89,East,82,0.0,4.0,96,0.00,,,0.14,0.0,meteohub,2013-06-11 08:21:00,
2013-06-11 04:26:00,62.1,61.0,29.89,East,82,1.0,4.0,96,0.00,,,0.14,0.0,meteohub,2013-06-11 08:26:00,
2013-06-11 04:31:00,62.1,61.0,29.89,WSW,248,0.0,3.0,96,0.00,,,0.14,0.0,meteohub,2013-06-11 08:31:00,
2013-06-11 04:36:00,61.9,60.8,29.89,WSW,248,1.0,3.0,96,0.00,,,0.14,0.0,meteohub,2013-06-11 08:36:00,
2013-06-11 04:41:00,61.9,60.8,29.88,ESE,107,1.0,3.0,96,0.00,,,0.14,0.0,meteohub,2013-06-11 08:41:00,
2013-06-11 04:46:00,61.9,60.8,29.89,ESE,107,0.0,3.0,96,0.00,,,0.14,0.0,meteohub,2013-06-11 08:46:00,
2013-06-11 04:52:00,61.7,60.6,29.88,ESE,107,0.0,2.0,96,0.00,,,0.14,0.0,meteohub,2013-06-11 08:52:00,
2013-06-11 04:57:00,61.5,60.4,29.88,ESE,107,1.0,2.0,96,0.00,,,0.14,0.0,meteohub,2013-06-11 08:57:00,
2013-06-11 05:02:00,61.5,60.4,29.89,ESE,107,0.0,2.0,96,0.00,,,0.14,0.0,meteohub,2013-06-11 09:02:00,
2013-06-11 05:07:00,61.3,60.3,29.89,ESE,107,0.0,2.0,96,0.00,,,0.14,0.0,meteohub,2013-06-11 09:07:00,
2013-06-11 05:12:00,61.3,60.3,29.89,ESE,107,0.0,2.0,96,0.00,,,0.14,0.0,meteohub,2013-06-11 09:12:00,
2013-06-11 05:17:00,61.3,60.3,29.89,ESE,107,0.0,3.0,96,0.00,,,0.14,0.0,meteohub,2013-06-11 09:17:00,
2013-06-11 05:22:00,61.2,60.1,29.89,ESE,107,0.0,3.0,96,0.00,,,0.14,0.0,meteohub,2013-06-11 09:22:00,
2013-06-11 05:27:00,61.2,60.1,29.89,SE,140,2.0,8.0,96,0.00,,,0.14,0.0,meteohub,2013-06-11 09:27:00,
2013-06-11 05:32:00,61.2,60.1,29.89,SE,136,0.0,8.0,96,0.00,,,0.14,0.0,meteohub,2013-06-11 09:32:00,
2013-06-11 05:37:00,61.3,60.3,29.89,South,191,1.0,8.0,96,0.00,,,0.14,0.0,meteohub,2013-06-11 09:37:00,
2013-06-11 05:42:00,61.3,60.3,29.89,SSE,168,3.0,5.0,96,0.00,,,0.14,0.0,meteohub,2013-06-11 09:42:00,
2013-06-11 05:47:00,61.3,60.3,29.88,SE,133,0.0,5.0,96,0.00,,,0.14,0.0,meteohub,2013-06-11 09:47:00,
2013-06-11 05:52:00,61.5,60.4,29.89,SSW,196,4.0,7.0,96,0.00,,,0.14,0.0,meteohub,2013-06-11 09:52:00,
2013-06-11 05:57:00,61.9,60.4,29.89,SSE,153,1.0,8.0,95,0.00,,,0.14,0.0,meteohub,2013-06-11 09:57:00,
2013-06-11 06:02:00,61.9,60.4,29.89,South,180,1.0,8.0,95,0.00,,,0.14,0.0,meteohub,2013-06-11 10:02:00,
2013-06-11 06:07:00,62.1,60.3,29.89,SE,128,1.0,8.0,94,0.00,,,0.14,0.0,meteohub,2013-06-11 10:07:00,
2013-06-11 06:13:00,62.1,60.3,29.90,ESE,123,1.0,6.0,94,0.00,,,0.14,0.0,meteohub,2013-06-11 10:13:00,
2013-06-11 06:18:00,62.1,60.3,29.90,SE,140,2.0,8.0,94,0.00,,,0.14,0.0,meteohub,2013-06-11 10:18:00,
2013-06-11 06:23:00,62.1,60.1,29.91,SE,146,0.0,8.0,93,0.00,,,0.14,0.0,meteohub,2013-06-11 10:23:00,
2013-06-11 06:28:00,62.2,60.3,29.91,SSE,151,1.0,8.0,93,0.00,,,0.14,0.0,meteohub,2013-06-11 10:28:00,
2013-06-11 06:33:00,62.2,60.3,29.91,East,94,1.0,4.0,93,0.00,,,0.14,5.0,meteohub,2013-06-11 10:33:00,
2013-06-11 06:38:00,62.2,60.3,29.91,South,173,1.0,4.0,93,0.00,,,0.14,7.0,meteohub,2013-06-11 10:38:00,
2013-06-11 06:43:00,62.2,60.3,29.91,ESE,114,2.0,4.0,93,0.00,,,0.14,7.0,meteohub,2013-06-11 10:43:00,
2013-06-11 06:48:00,62.2,60.3,29.91,SSE,156,0.0,4.0,93,0.00,,,0.14,9.0,meteohub,2013-06-11 10:48:00,
2013-06-11 06:53:00,62.4,60.4,29.91,SSE,153,1.0,3.0,93,0.00,,,0.14,9.0,meteohub,2013-06-11 10:53:00,
2013-06-11 06:58:00,62.2,60.3,29.91,SSW,194,1.0,3.0,93,0.00,,,0.14,11.0,meteohub,2013-06-11 10:58:00,
2013-06-11 07:03:00,62.2,60.3,29.92,ESE,123,3.0,4.0,93,0.00,,,0.14,11.0,meteohub,2013-06-11 11:03:00,
2013-06-11 07:08:00,62.2,60.3,29.92,SSE,165,1.0,4.0,93,0.00,,,0.14,12.0,meteohub,2013-06-11 11:08:00,
2013-06-11 07:14:00,62.2,59.9,29.92,SSW,205,1.0,5.0,92,0.00,,,0.14,12.0,meteohub,2013-06-11 11:14:00,
2013-06-11 07:19:00,62.2,60.3,29.92,ESE,117,2.0,5.0,93,0.00,,,0.14,14.0,meteohub,2013-06-11 11:19:00,
2013-06-11 07:24:00,62.4,60.4,29.92,ESE,120,1.0,5.0,93,0.00,,,0.14,14.0,meteohub,2013-06-11 11:24:00,
2013-06-11 07:29:00,62.4,60.4,29.93,East,85,1.0,4.0,93,0.00,,,0.14,16.0,meteohub,2013-06-11 11:29:00,
2013-06-11 07:34:00,62.4,60.4,29.93,East,85,0.0,6.0,93,0.00,,,0.14,16.0,meteohub,2013-06-11 11:34:00,
2013-06-11 07:39:00,62.2,60.3,29.93,NE,44,0.0,6.0,93,0.00,,,0.14,21.0,meteohub,2013-06-11 11:39:00,
2013-06-11 07:44:00,62.4,60.4,29.93,NE,46,0.0,6.0,93,0.00,,,0.14,19.0,meteohub,2013-06-11 11:44:00,
2013-06-11 07:49:00,62.4,60.4,29.93,ENE,62,0.0,2.0,93,0.00,,,0.14,21.0,meteohub,2013-06-11 11:49:00,
2013-06-11 07:54:00,62.4,60.4,29.93,NNE,28,1.0,4.0,93,0.00,,,0.14,26.0,meteohub,2013-06-11 11:54:00,
2013-06-11 07:59:00,62.4,60.4,29.94,ESE,102,2.0,4.0,93,0.00,,,0.14,32.0,meteohub,2013-06-11 11:59:00,
2013-06-11 08:04:00,62.6,60.6,29.94,East,92,1.0,4.0,93,0.00,,,0.14,26.0,meteohub,2013-06-11 12:04:00,
2013-06-11 08:09:00,62.8,60.8,29.94,ESE,111,2.0,5.0,93,0.00,,,0.14,32.0,meteohub,2013-06-11 12:09:00,
2013-06-11 08:14:00,62.8,60.8,29.94,NE,40,1.0,5.0,93,0.00,,,0.14,53.0,meteohub,2013-06-11 12:14:00,
2013-06-11 08:19:00,63.0,61.0,29.95,NNE,32,0.0,5.0,93,0.00,,,0.14,35.0,meteohub,2013-06-11 12:19:00,
2013-06-11 08:24:00,63.1,61.2,29.94,NE,55,0.0,3.0,93,0.00,,,0.14,42.0,meteohub,2013-06-11 12:24:00,
2013-06-11 08:29:00,63.1,61.2,29.95,NE,55,2.0,3.0,93,0.00,,,0.14,42.0,meteohub,2013-06-11 12:29:00,
2013-06-11 08:34:00,63.3,61.3,29.95,NNW,338,0.0,2.0,93,0.00,,,0.14,58.0,meteohub,2013-06-11 12:34:00,
2013-06-11 08:40:00,63.5,61.5,29.95,NNW,338,0.0,4.0,93,0.00,,,0.14,63.0,meteohub,2013-06-11 12:40:00,
2013-06-11 08:45:00,63.7,61.7,29.95,SE,128,1.0,4.0,93,0.00,,,0.14,44.0,meteohub,2013-06-11 12:45:00,
2013-06-11 08:50:00,63.9,61.9,29.95,SE,128,0.0,2.0,93,0.00,,,0.14,53.0,meteohub,2013-06-11 12:50:00,
2013-06-11 08:55:00,64.0,61.3,29.95,SSE,161,2.0,5.0,91,0.00,,,0.14,86.0,meteohub,2013-06-11 12:55:00,
2013-06-11 09:00:00,64.4,61.3,29.96,East,98,2.0,5.0,90,0.00,,,0.14,83.0,meteohub,2013-06-11 13:00:00,
2013-06-11 09:05:00,64.8,62.1,29.96,East,97,0.0,5.0,91,0.00,,,0.14,77.0,meteohub,2013-06-11 13:05:00,
2013-06-11 09:10:00,64.9,62.2,29.96,West,271,1.0,4.0,91,0.00,,,0.14,84.0,meteohub,2013-06-11 13:10:00,
2013-06-11 09:16:00,65.1,62.4,29.96,West,268,1.0,5.0,91,0.00,,,0.14,120.0,meteohub,2013-06-11 13:16:00,
2013-06-11 09:21:00,65.3,62.6,29.96,NNE,18,3.0,5.0,91,0.00,,,0.14,98.0,meteohub,2013-06-11 13:21:00,
2013-06-11 09:26:00,65.5,62.2,29.96,SE,126,0.0,3.0,89,0.00,,,0.14,84.0,meteohub,2013-06-11 13:26:00,
2013-06-11 09:32:00,65.7,62.2,29.96,SSE,148,1.0,3.0,89,0.00,,,0.14,100.0,meteohub,2013-06-11 13:32:00,
2013-06-11 09:37:00,66.0,63.0,29.96,East,94,2.0,3.0,90,0.00,,,0.14,144.0,meteohub,2013-06-11 13:37:00,
2013-06-11 09:42:00,66.2,62.8,29.96,ESE,115,0.0,4.0,89,0.00,,,0.14,171.0,meteohub,2013-06-11 13:42:00,
2013-06-11 09:47:00,66.6,63.1,29.96,South,191,0.0,4.0,89,0.00,,,0.14,158.0,meteohub,2013-06-11 13:47:00,
2013-06-11 09:52:00,66.7,62.8,29.95,East,94,1.0,4.0,87,0.00,,,0.14,179.0,meteohub,2013-06-11 13:52:00,
2013-06-11 09:57:00,67.1,63.1,29.96,SE,146,2.0,6.0,87,0.00,,,0.14,158.0,meteohub,2013-06-11 13:57:00,
2013-06-11 10:02:00,67.5,63.1,29.95,ESE,107,0.0,7.0,86,0.00,,,0.14,255.0,meteohub,2013-06-11 14:02:00,
2013-06-11 10:07:00,67.8,63.1,29.96,SE,138,1.0,7.0,85,0.00,,,0.14,137.0,meteohub,2013-06-11 14:07:00,
2013-06-11 10:12:00,68.4,64.4,29.96,ESE,102,0.0,7.0,87,0.00,,,0.14,772.0,meteohub,2013-06-11 14:12:00,
2013-06-11 10:17:00,68.5,62.8,29.96,East,96,2.0,6.0,82,0.00,,,0.14,758.0,meteohub,2013-06-11 14:17:00,
2013-06-11 10:22:00,69.3,63.5,29.96,ESE,105,2.0,6.0,82,0.00,,,0.14,763.0,meteohub,2013-06-11 14:22:00,
2013-06-11 10:27:00,69.6,63.5,29.96,SE,130,2.0,6.0,81,0.00,,,0.14,819.0,meteohub,2013-06-11 14:27:00,
2013-06-11 10:32:00,70.3,64.9,29.96,SSE,163,2.0,6.0,83,0.00,,,0.14,858.0,meteohub,2013-06-11 14:32:00,
2013-06-11 10:37:00,70.9,63.7,29.96,NNW,331,1.0,6.0,78,0.00,,,0.14,812.0,meteohub,2013-06-11 14:37:00,
2013-06-11 10:42:00,71.2,63.3,29.96,NE,55,1.0,8.0,76,0.00,,,0.14,798.0,meteohub,2013-06-11 14:42:00,
2013-06-11 10:47:00,71.6,63.3,29.96,SE,143,1.0,8.0,75,0.00,,,0.14,817.0,meteohub,2013-06-11 14:47:00,
2013-06-11 10:52:00,72.0,64.0,29.96,SSW,197,0.0,8.0,76,0.00,,,0.14,846.0,meteohub,2013-06-11 14:52:00,
2013-06-11 10:57:00,72.7,64.2,29.96,SSE,164,3.0,8.0,75,0.00,,,0.14,879.0,meteohub,2013-06-11 14:57:00,
2013-06-11 11:02:00,72.9,64.0,29.96,SSE,153,1.0,8.0,74,0.00,,,0.14,937.0,meteohub,2013-06-11 15:02:00,
2013-06-11 11:07:00,72.9,63.7,29.96,ESE,112,3.0,6.0,73,0.00,,,0.14,939.0,meteohub,2013-06-11 15:07:00,
2013-06-11 11:13:00,72.9,64.8,29.96,SSE,151,0.0,6.0,76,0.00,,,0.14,814.0,meteohub,2013-06-11 15:13:00,
2013-06-11 11:18:00,73.0,64.2,29.96,East,93,5.0,5.0,74,0.00,,,0.14,909.0,meteohub,2013-06-11 15:18:00,
2013-06-11 11:23:00,73.2,64.4,29.96,SE,139,0.0,5.0,74,0.00,,,0.14,954.0,meteohub,2013-06-11 15:23:00,
2013-06-11 11:28:00,73.8,64.2,29.96,SE,133,5.0,5.0,72,0.00,,,0.14,875.0,meteohub,2013-06-11 15:28:00,
2013-06-11 11:33:00,73.9,63.9,29.96,NE,50,1.0,5.0,71,0.00,,,0.14,928.0,meteohub,2013-06-11 15:33:00,
2013-06-11 11:38:00,74.1,62.4,29.96,South,186,5.0,5.0,67,0.00,,,0.14,898.0,meteohub,2013-06-11 15:38:00,
2013-06-11 11:43:00,74.1,64.0,29.96,SE,127,2.0,6.0,71,0.00,,,0.14,902.0,meteohub,2013-06-11 15:43:00,
2013-06-11 11:48:00,74.3,63.9,29.96,NNE,24,4.0,6.0,70,0.00,,,0.14,944.0,meteohub,2013-06-11 15:48:00,
2013-06-11 11:53:00,74.5,61.5,29.96,ENE,69,2.0,7.0,64,0.00,,,0.14,921.0,meteohub,2013-06-11 15:53:00,
2013-06-11 11:58:00,74.5,64.9,29.96,ESE,105,4.0,7.0,72,0.00,,,0.14,935.0,meteohub,2013-06-11 15:58:00,
2013-06-11 12:03:00,74.7,63.9,29.96,West,274,2.0,7.0,69,0.00,,,0.14,918.0,meteohub,2013-06-11 16:03:00,
2013-06-11 12:08:00,75.0,63.3,29.96,East,100,0.0,6.0,67,0.00,,,0.14,925.0,meteohub,2013-06-11 16:08:00,
2013-06-11 12:14:00,75.6,64.2,29.96,SSE,167,1.0,6.0,68,0.00,,,0.14,935.0,meteohub,2013-06-11 16:14:00,
2013-06-11 12:19:00,76.3,61.9,29.95,NW,308,3.0,6.0,61,0.00,,,0.14,949.0,meteohub,2013-06-11 16:19:00,
2013-06-11 12:24:00,76.5,63.3,29.95,NNE,30,1.0,7.0,64,0.00,,,0.14,947.0,meteohub,2013-06-11 16:24:00,
2013-06-11 12:29:00,76.6,62.2,29.95,ENE,78,1.0,7.0,61,0.00,,,0.14,953.0,meteohub,2013-06-11 16:29:00,
2013-06-11 12:34:00,77.0,63.0,29.95,East,84,2.0,7.0,62,0.00,,,0.14,956.0,meteohub,2013-06-11 16:34:00,
2013-06-11 12:39:00,77.2,64.9,29.95,East,80,2.0,7.0,66,0.00,,,0.14,963.0,meteohub,2013-06-11 16:39:00,
2013-06-11 12:44:00,77.4,61.3,29.94,ESE,123,4.0,7.0,58,0.00,,,0.14,976.0,meteohub,2013-06-11 16:44:00,
2013-06-11 12:49:00,77.4,63.9,29.94,East,87,1.0,6.0,63,0.00,,,0.14,972.0,meteohub,2013-06-11 16:49:00,
2013-06-11 12:54:00,77.5,62.6,29.94,North,0,2.0,8.0,60,0.00,,,0.14,977.0,meteohub,2013-06-11 16:54:00,
2013-06-11 12:59:00,77.7,64.0,29.94,East,81,8.0,8.0,63,0.00,,,0.14,986.0,meteohub,2013-06-11 16:59:00,
2013-06-11 13:04:00,77.7,60.3,29.94,ESE,110,3.0,8.0,55,0.00,,,0.14,988.0,meteohub,2013-06-11 17:04:00,
2013-06-11 13:09:00,77.7,61.7,29.94,South,189,1.0,11.0,58,0.00,,,0.14,991.0,meteohub,2013-06-11 17:09:00,
2013-06-11 13:14:00,77.9,61.0,29.94,NE,37,3.0,11.0,56,0.00,,,0.14,990.0,meteohub,2013-06-11 17:14:00,
2013-06-11 13:19:00,78.1,60.6,29.94,SE,128,3.0,6.0,55,0.00,,,0.14,1002.0,meteohub,2013-06-11 17:19:00,
2013-06-11 13:24:00,78.3,59.2,29.94,SSW,206,1.0,10.0,52,0.00,,,0.14,977.0,meteohub,2013-06-11 17:24:00,
2013-06-11 13:30:00,78.3,59.7,29.94,South,180,1.0,10.0,53,0.00,,,0.14,944.0,meteohub,2013-06-11 17:30:00,
2013-06-11 13:35:00,78.4,59.9,29.93,East,90,1.0,10.0,53,0.00,,,0.14,991.0,meteohub,2013-06-11 17:35:00,
2013-06-11 13:40:00,78.3,58.6,29.94,ENE,78,2.0,7.0,51,0.00,,,0.14,991.0,meteohub,2013-06-11 17:40:00,
2013-06-11 13:45:00,78.6,60.6,29.93,ESE,109,3.0,7.0,54,0.00,,,0.14,990.0,meteohub,2013-06-11 17:45:00,
2013-06-11 13:50:00,78.6,59.0,29.93,NW,310,2.0,7.0,51,0.00,,,0.14,991.0,meteohub,2013-06-11 17:50:00,
2013-06-11 13:55:00,79.0,60.4,29.93,ENE,74,1.0,8.0,53,0.00,,,0.14,1000.0,meteohub,2013-06-11 17:55:00,
2013-06-11 14:00:00,79.2,59.5,29.93,South,172,2.0,8.0,51,0.00,,,0.14,988.0,meteohub,2013-06-11 18:00:00,
2013-06-11 14:05:00,79.3,59.7,29.94,SE,129,2.0,8.0,51,0.00,,,0.14,984.0,meteohub,2013-06-11 18:05:00,
2013-06-11 14:10:00,79.5,58.1,29.94,SSW,201,0.0,5.0,48,0.00,,,0.14,979.0,meteohub,2013-06-11 18:10:00,
2013-06-11 14:15:00,79.7,60.4,29.93,ESE,122,2.0,7.0,52,0.00,,,0.14,969.0,meteohub,2013-06-11 18:15:00,
2013-06-11 14:20:00,80.1,59.7,29.93,West,269,3.0,7.0,50,0.00,,,0.14,969.0,meteohub,2013-06-11 18:20:00,
2013-06-11 14:25:00,80.2,58.1,29.94,SE,139,0.0,7.0,47,0.00,,,0.14,963.0,meteohub,2013-06-11 18:25:00,
2013-06-11 14:31:00,80.4,61.2,29.93,SE,128,0.0,6.0,52,0.00,,,0.14,958.0,meteohub,2013-06-11 18:31:00,
2013-06-11 14:36:00,81.0,59.4,29.93,South,180,0.0,6.0,48,0.00,,,0.14,954.0,meteohub,2013-06-11 18:36:00,
2013-06-11 14:41:00,81.1,61.3,29.93,SW,223,5.0,6.0,51,0.00,,,0.14,947.0,meteohub,2013-06-11 18:41:00,
2013-06-11 14:46:00,81.3,63.7,29.93,SSE,166,3.0,6.0,55,0.00,,,0.14,949.0,meteohub,2013-06-11 18:46:00,
2013-06-11 14:52:00,81.7,58.8,29.93,West,277,2.0,7.0,46,0.00,,,0.14,940.0,meteohub,2013-06-11 18:52:00,
2013-06-11 14:57:00,81.9,57.7,29.93,SE,125,4.0,7.0,44,0.00,,,0.14,932.0,meteohub,2013-06-11 18:57:00,
2013-06-11 15:02:00,81.9,58.5,29.93,ESE,112,3.0,7.0,45,0.00,,,0.14,923.0,meteohub,2013-06-11 19:02:00,
2013-06-11 15:07:00,81.9,57.2,29.93,SE,127,1.0,7.0,43,0.00,,,0.14,817.0,meteohub,2013-06-11 19:07:00,
2013-06-11 15:12:00,81.7,58.8,29.93,South,183,2.0,8.0,46,0.00,,,0.14,861.0,meteohub,2013-06-11 19:12:00,
2013-06-11 15:17:00,81.5,58.1,29.93,SSW,205,3.0,10.0,45,0.00,,,0.14,879.0,meteohub,2013-06-11 19:17:00,
2013-06-11 15:22:00,81.7,58.8,29.93,WSW,240,2.0,10.0,46,0.00,,,0.14,854.0,meteohub,2013-06-11 19:22:00,
2013-06-11 15:27:00,81.7,58.8,29.92,ESE,111,4.0,10.0,46,0.00,,,0.14,863.0,meteohub,2013-06-11 19:27:00,
2013-06-11 15:32:00,82.0,59.9,29.92,SSE,165,2.0,6.0,47,0.00,,,0.14,872.0,meteohub,2013-06-11 19:32:00,
2013-06-11 15:37:00,82.0,59.2,29.92,East,82,0.0,6.0,46,0.00,,,0.14,863.0,meteohub,2013-06-11 19:37:00,
2013-06-11 15:42:00,82.6,59.0,29.92,ESE,108,9.0,9.0,45,0.00,,,0.14,853.0,meteohub,2013-06-11 19:42:00,
2013-06-11 15:47:00,82.2,58.1,29.92,WNW,290,2.0,10.0,44,0.00,,,0.14,840.0,meteohub,2013-06-11 19:47:00,
2013-06-11 15:52:00,82.6,59.0,29.92,SSE,161,0.0,10.0,45,0.00,,,0.14,830.0,meteohub,2013-06-11 19:52:00,
2013-06-11 15:58:00,82.8,59.9,29.92,ENE,61,4.0,10.0,46,0.00,,,0.14,819.0,meteohub,2013-06-11 19:58:00,
2013-06-11 16:03:00,82.9,61.2,29.91,NE,56,2.0,6.0,48,0.00,,,0.14,809.0,meteohub,2013-06-11 20:03:00,
2013-06-11 16:08:00,82.9,62.4,29.91,South,171,2.0,6.0,50,0.00,,,0.14,796.0,meteohub,2013-06-11 20:08:00,
2013-06-11 16:13:00,83.1,61.3,29.91,North,355,3.0,6.0,48,0.00,,,0.14,784.0,meteohub,2013-06-11 20:13:00,
2013-06-11 16:18:00,83.1,63.7,29.91,SW,231,1.0,6.0,52,0.00,,,0.14,772.0,meteohub,2013-06-11 20:18:00,
2013-06-11 16:23:00,83.1,61.3,29.91,South,170,2.0,7.0,48,0.00,,,0.14,758.0,meteohub,2013-06-11 20:23:00,
2013-06-11 16:28:00,83.5,63.5,29.91,South,185,2.0,7.0,51,0.00,,,0.14,747.0,meteohub,2013-06-11 20:28:00,
2013-06-11 16:33:00,83.7,63.7,29.91,SE,140,0.0,7.0,51,0.00,,,0.14,733.0,meteohub,2013-06-11 20:33:00,
2013-06-11 16:38:00,83.8,63.1,29.91,SSE,163,4.0,4.0,50,0.00,,,0.14,717.0,meteohub,2013-06-11 20:38:00,
2013-06-11 16:43:00,83.8,64.9,29.91,SSW,197,3.0,6.0,53,0.00,,,0.14,701.0,meteohub,2013-06-11 20:43:00,
2013-06-11 16:48:00,83.8,63.9,29.91,South,175,3.0,6.0,51,0.00,,,0.14,689.0,meteohub,2013-06-11 20:48:00,
2013-06-11 16:54:00,83.8,63.1,29.91,South,178,1.0,6.0,50,0.00,,,0.14,673.0,meteohub,2013-06-11 20:54:00,
2013-06-11 16:59:00,83.8,66.4,29.91,NNE,17,0.0,6.0,56,0.00,,,0.14,661.0,meteohub,2013-06-11 20:59:00,
2013-06-11 17:04:00,83.8,63.1,29.91,NNE,13,2.0,4.0,50,0.00,,,0.14,643.0,meteohub,2013-06-11 21:04:00,
2013-06-11 17:09:00,83.8,61.5,29.91,SSW,194,0.0,4.0,47,0.00,,,0.14,629.0,meteohub,2013-06-11 21:09:00,
2013-06-11 17:14:00,83.8,61.5,29.91,South,178,0.0,4.0,47,0.00,,,0.14,612.0,meteohub,2013-06-11 21:14:00,
2013-06-11 17:19:00,83.8,62.1,29.91,ENE,67,4.0,4.0,48,0.00,,,0.14,591.0,meteohub,2013-06-11 21:19:00,
2013-06-11 17:24:00,83.7,64.2,29.91,ESE,104,2.0,4.0,52,0.00,,,0.14,580.0,meteohub,2013-06-11 21:24:00,
2013-06-11 17:29:00,83.7,64.8,29.91,ESE,107,0.0,5.0,53,0.00,,,0.14,570.0,meteohub,2013-06-11 21:29:00,
2013-06-11 17:34:00,83.7,61.9,29.91,SSE,159,0.0,5.0,48,0.00,,,0.14,190.0,meteohub,2013-06-11 21:34:00,
2013-06-11 17:39:00,83.3,61.5,29.91,South,184,3.0,3.0,48,0.00,,,0.14,285.0,meteohub,2013-06-11 21:39:00,
2013-06-11 17:44:00,82.8,62.2,29.91,North,5,1.0,2.0,50,0.00,,,0.14,63.0,meteohub,2013-06-11 21:44:00,
2013-06-11 17:49:00,82.2,62.2,29.91,East,101,0.0,4.0,51,0.00,,,0.14,58.0,meteohub,2013-06-11 21:49:00,
2013-06-11 17:54:00,81.5,61.0,29.90,SE,134,3.0,4.0,50,0.00,,,0.14,67.0,meteohub,2013-06-11 21:54:00,
2013-06-11 17:59:00,80.8,59.9,29.91,North,5,0.0,5.0,49,0.00,,,0.14,70.0,meteohub,2013-06-11 21:59:00,
2013-06-11 18:04:00,80.2,58.8,29.91,SSE,161,0.0,5.0,48,0.00,,,0.14,63.0,meteohub,2013-06-11 22:04:00,
2013-06-11 18:10:00,79.9,59.5,29.91,SSE,162,0.0,4.0,50,0.00,,,0.14,63.0,meteohub,2013-06-11 22:10:00,
2013-06-11 18:15:00,79.3,60.3,29.91,South,179,0.0,4.0,52,0.00,,,0.14,113.0,meteohub,2013-06-11 22:15:00,
2013-06-11 18:20:00,79.2,61.2,29.91,South,186,0.0,4.0,54,0.00,,,0.14,70.0,meteohub,2013-06-11 22:20:00,
2013-06-11 18:25:00,79.0,60.4,29.91,ESE,123,1.0,3.0,53,0.00,,,0.14,53.0,meteohub,2013-06-11 22:25:00,
2013-06-11 18:30:00,78.6,60.6,29.91,SSE,168,3.0,3.0,54,0.00,,,0.14,60.0,meteohub,2013-06-11 22:30:00,
2013-06-11 18:35:00,78.3,60.8,29.91,SSE,161,1.0,3.0,55,0.00,,,0.14,93.0,meteohub,2013-06-11 22:35:00,
2013-06-11 18:40:00,77.9,59.9,29.91,SSE,161,0.0,3.0,54,0.00,,,0.14,49.0,meteohub,2013-06-11 22:40:00,
2013-06-11 18:45:00,77.5,61.2,29.91,SSE,147,1.0,3.0,57,0.00,,,0.14,39.0,meteohub,2013-06-11 22:45:00,
2013-06-11 18:50:00,77.4,61.3,29.91,SSE,147,1.0,3.0,58,0.00,,,0.14,37.0,meteohub,2013-06-11 22:50:00,
2013-06-11 18:55:00,76.8,59.4,29.91,ESE,113,2.0,3.0,55,0.00,,,0.14,33.0,meteohub,2013-06-11 22:55:00,
2013-06-11 19:00:00,76.5,58.6,29.91,ENE,74,1.0,3.0,54,0.00,,,0.14,32.0,meteohub,2013-06-11 23:00:00,
2013-06-11 19:05:00,76.3,60.4,29.91,SSE,149,0.0,3.0,58,0.00,,,0.14,30.0,meteohub,2013-06-11 23:05:00,
2013-06-11 19:10:00,75.9,59.5,29.91,NE,38,1.0,3.0,57,0.00,,,0.14,30.0,meteohub,2013-06-11 23:10:00,
2013-06-11 19:15:00,75.6,59.2,29.91,NE,38,0.0,3.0,57,0.00,,,0.14,28.0,meteohub,2013-06-11 23:15:00,
2013-06-11 19:20:00,75.2,60.4,29.91,NE,38,1.0,3.0,60,0.00,,,0.14,26.0,meteohub,2013-06-11 23:20:00,
2013-06-11 19:25:00,75.0,59.2,29.91,SSE,156,1.0,3.0,58,0.00,,,0.14,25.0,meteohub,2013-06-11 23:25:00,
2013-06-11 19:31:00,74.7,60.3,29.91,ESE,109,1.0,3.0,61,0.00,,,0.14,23.0,meteohub,2013-06-11 23:31:00,
2013-06-11 19:36:00,74.5,60.6,29.92,ESE,109,0.0,3.0,62,0.00,,,0.14,23.0,meteohub,2013-06-11 23:36:00,
2013-06-11 19:41:00,74.1,59.4,29.91,East,100,1.0,2.0,60,0.00,,,0.14,19.0,meteohub,2013-06-11 23:41:00,
2013-06-11 19:46:00,73.9,59.7,29.91,East,100,0.0,3.0,61,0.00,,,0.14,18.0,meteohub,2013-06-11 23:46:00,
2013-06-11 19:51:00,73.8,60.4,29.91,East,100,2.0,3.0,63,0.00,,,0.14,18.0,meteohub,2013-06-11 23:51:00,
2013-06-11 19:56:00,73.6,60.3,29.91,SE,130,1.0,4.0,63,0.00,,,0.14,14.0,meteohub,2013-06-11 23:56:00,
2013-06-11 20:01:00,73.6,60.6,29.91,SE,130,0.0,4.0,64,0.00,,,0.14,14.0,meteohub,2013-06-12 00:01:00,
2013-06-11 20:06:00,73.2,60.3,29.91,SE,130,0.0,4.0,64,0.00,,,0.14,12.0,meteohub,2013-06-12 00:06:00,
2013-06-11 20:11:00,73.0,60.1,29.91,SE,130,0.0,2.0,64,0.00,,,0.14,12.0,meteohub,2013-06-12 00:11:00,
2013-06-11 20:17:00,72.9,60.8,29.91,SE,129,0.0,3.0,66,0.00,,,0.14,11.0,meteohub,2013-06-12 00:17:00,
2013-06-11 20:22:00,72.7,61.2,29.91,SE,129,0.0,3.0,67,0.00,,,0.14,9.0,meteohub,2013-06-12 00:22:00,
2013-06-11 20:27:00,72.3,60.3,29.91,SE,129,0.0,3.0,66,0.00,,,0.14,5.0,meteohub,2013-06-12 00:27:00,
2013-06-11 20:32:00,72.1,61.0,29.91,SE,129,0.0,2.0,68,0.00,,,0.14,5.0,meteohub,2013-06-12 00:32:00,
2013-06-11 20:37:00,72.0,61.2,29.91,SE,129,0.0,2.0,69,0.00,,,0.14,0.0,meteohub,2013-06-12 00:37:00,
2013-06-11 20:42:00,71.8,61.0,29.91,SE,129,1.0,2.0,69,0.00,,,0.14,0.0,meteohub,2013-06-12 00:42:00,
2013-06-11 20:47:00,71.4,60.3,29.91,SE,129,1.0,1.0,68,0.00,,,0.14,0.0,meteohub,2013-06-12 00:47:00,
2013-06-11 20:52:00,71.2,61.0,29.92,SE,129,1.0,2.0,70,0.00,,,0.14,0.0,meteohub,2013-06-12 00:52:00,
2013-06-11 20:57:00,71.1,60.8,29.91,SE,129,1.0,2.0,70,0.00,,,0.14,0.0,meteohub,2013-06-12 00:57:00,
2013-06-11 21:02:00,70.9,60.3,29.91,SE,129,1.0,2.0,69,0.00,,,0.14,0.0,meteohub,2013-06-12 01:02:00,
2013-06-11 21:07:00,70.5,60.3,29.92,NE,35,1.0,2.0,70,0.00,,,0.14,0.0,meteohub,2013-06-12 01:07:00,
2013-06-11 21:12:00,70.3,60.4,29.92,NE,36,0.0,3.0,71,0.00,,,0.14,0.0,meteohub,2013-06-12 01:12:00,
2013-06-11 21:17:00,70.2,61.2,29.92,NE,36,1.0,3.0,73,0.00,,,0.14,0.0,meteohub,2013-06-12 01:17:00,
2013-06-11 21:22:00,70.0,61.0,29.92,NE,36,1.0,3.0,73,0.00,,,0.14,0.0,meteohub,2013-06-12 01:22:00,
2013-06-11 21:27:00,69.6,60.6,29.92,NE,36,1.0,3.0,73,0.00,,,0.14,0.0,meteohub,2013-06-12 01:27:00,
2013-06-11 21:33:00,69.4,60.8,29.93,NE,36,0.0,2.0,74,0.00,,,0.14,0.0,meteohub,2013-06-12 01:33:00,
2013-06-11 21:38:00,69.3,61.0,29.93,NE,36,1.0,2.0,75,0.00,,,0.14,0.0,meteohub,2013-06-12 01:38:00,
2013-06-11 21:43:00,69.3,61.3,29.93,NE,36,0.0,2.0,76,0.00,,,0.14,0.0,meteohub,2013-06-12 01:43:00,
2013-06-11 21:48:00,69.1,61.5,29.94,NE,36,0.0,1.0,77,0.00,,,0.14,0.0,meteohub,2013-06-12 01:48:00,
2013-06-11 21:53:00,68.9,61.3,29.94,NE,36,1.0,1.0,77,0.00,,,0.14,0.0,meteohub,2013-06-12 01:53:00,
2013-06-11 21:58:00,68.7,61.5,29.94,NE,36,0.0,2.0,78,0.00,,,0.14,0.0,meteohub,2013-06-12 01:58:00,
2013-06-11 22:03:00,68.5,61.3,29.94,NE,36,2.0,2.0,78,0.00,,,0.14,0.0,meteohub,2013-06-12 02:03:00,
2013-06-11 22:08:00,68.4,61.5,29.94,NE,36,0.0,2.0,79,0.00,,,0.14,0.0,meteohub,2013-06-12 02:08:00,
2013-06-11 22:13:00,68.4,61.5,29.95,NE,36,0.0,2.0,79,0.00,,,0.14,0.0,meteohub,2013-06-12 02:13:00,
2013-06-11 22:18:00,68.2,61.3,29.95,NE,36,0.0,2.0,79,0.00,,,0.14,0.0,meteohub,2013-06-12 02:18:00,
2013-06-11 22:23:00,67.8,61.3,29.94,NE,36,0.0,2.0,80,0.00,,,0.14,0.0,meteohub,2013-06-12 02:23:00,
2013-06-11 22:28:00,67.8,61.3,29.95,NE,36,0.0,2.0,80,0.00,,,0.14,0.0,meteohub,2013-06-12 02:28:00,
2013-06-11 22:33:00,67.6,61.5,29.96,NE,36,1.0,2.0,81,0.00,,,0.14,0.0,meteohub,2013-06-12 02:33:00,
2013-06-11 22:38:00,67.5,61.7,29.96,NE,36,0.0,2.0,82,0.00,,,0.14,0.0,meteohub,2013-06-12 02:38:00,
2013-06-11 22:43:00,67.5,61.3,29.96,NE,36,0.0,1.0,81,0.00,,,0.14,0.0,meteohub,2013-06-12 02:43:00,
2013-06-11 22:48:00,67.3,61.9,29.96,NE,36,0.0,1.0,83,0.00,,,0.14,0.0,meteohub,2013-06-12 02:48:00,
2013-06-11 22:53:00,67.3,61.5,29.96,NE,36,0.0,1.0,82,0.00,,,0.14,0.0,meteohub,2013-06-12 02:53:00,
2013-06-11 22:58:00,67.3,61.9,29.96,NE,36,0.0,1.0,83,0.00,,,0.14,0.0,meteohub,2013-06-12 02:58:00,
2013-06-11 23:03:00,67.1,61.7,29.96,NE,36,0.0,1.0,83,0.00,,,0.14,0.0,meteohub,2013-06-12 03:03:00,
2013-06-11 23:08:00,67.1,61.7,29.96,NE,36,0.0,1.0,83,0.00,,,0.14,0.0,meteohub,2013-06-12 03:08:00,
2013-06-11 23:14:00,66.9,61.5,29.96,NE,36,0.0,1.0,83,0.00,,,0.14,0.0,meteohub,2013-06-12 03:14:00,
2013-06-11 23:19:00,66.9,62.2,29.95,NE,36,0.0,2.0,85,0.00,,,0.14,0.0,meteohub,2013-06-12 03:19:00,
2013-06-11 23:24:00,66.9,61.9,29.95,NE,36,0.0,2.0,84,0.00,,,0.14,0.0,meteohub,2013-06-12 03:24:00,
2013-06-11 23:29:00,66.7,62.1,29.95,NE,36,0.0,2.0,85,0.00,,,0.14,0.0,meteohub,2013-06-12 03:29:00,
2013-06-11 23:34:00,66.7,61.7,29.95,NE,36,0.0,2.0,84,0.00,,,0.14,0.0,meteohub,2013-06-12 03:34:00,
2013-06-11 23:39:00,66.6,61.5,29.95,NE,36,0.0,2.0,84,0.00,,,0.14,0.0,meteohub,2013-06-12 03:39:00,
2013-06-11 23:44:00,66.6,61.5,29.96,NE,36,1.0,2.0,84,0.00,,,0.14,0.0,meteohub,2013-06-12 03:44:00,
2013-06-11 23:49:00,66.6,61.5,29.96,NE,36,0.0,2.0,84,0.00,,,0.14,0.0,meteohub,2013-06-12 03:49:00,
2013-06-11 23:54:00,66.4,61.7,29.96,NE,36,0.0,2.0,85,0.00,,,0.14,0.0,meteohub,2013-06-12 03:54:00,
2013-06-11 23:59:00,66.4,61.3,29.95,NE,36,0.0,2.0,84,0.00,,,0.14,0.0,meteohub,2013-06-12 03:59:00,